Time;durP1;ratioP1;P1;durP2;ratioP2;P2;SDS_P1;SDS_P2;PMS_P1;PMS_P2;Temp;Humidity;BMP_temperature;BMP_pressure;BME280_temperature;BME280_humidity;BME280_pressure;Samples;Min_cycle;Max_cycle;Signal;HPM_P1;HPM_P2
2023/05/10 00:02:03;;;;;;;0.40;0.30;;;;;;;13.74;100.00;96205.91;5055327;28;20217;-65
2023/05/10 00:04:32;;;;;;;0.57;0.57;;;;;;;13.73;100.00;96209.56;5055436;28;20298;-65
2023/05/10 00:06:58;;;;;;;0.27;0.27;;;;;;;13.66;100.00;96211.25;5055422;28;20328;-65
2023/05/10 00:09:26;;;;;;;0.57;0.20;;;;;;;13.69;100.00;96208.25;5055591;28;20207;-64
2023/05/10 00:11:52;;;;;;;0.40;0.40;;;;;;;13.68;100.00;96212.72;5055181;28;20561;-64
2023/05/10 00:14:19;;;;;;;0.37;0.33;;;;;;;13.69;100.00;96213.56;5054983;28;20218;-65
2023/05/10 00:16:47;;;;;;;2.23;0.30;;;;;;;13.66;100.00;96209.41;5055544;28;20203;-64
2023/05/10 00:19:15;;;;;;;1.83;0.43;;;;;;;13.68;100.00;96211.88;5055299;28;20547;-66
2023/05/10 00:21:43;;;;;;;0.30;0.30;;;;;;;13.74;100.00;96212.06;5055128;28;20241;-64
2023/05/10 00:24:09;;;;;;;0.40;0.37;;;;;;;13.79;100.00;96215.00;5056894;28;20277;-65
2023/05/10 00:26:36;;;;;;;0.50;0.50;;;;;;;13.79;100.00;96209.69;5056223;28;20318;-66
2023/05/10 00:29:02;;;;;;;1.10;0.40;;;;;;;13.75;100.00;96213.69;5055256;28;20686;-66
2023/05/10 00:31:29;;;;;;;0.30;0.30;;;;;;;13.70;100.00;96216.06;5053798;28;20207;-64
2023/05/10 00:33:57;;;;;;;0.33;0.33;;;;;;;13.72;100.00;96221.19;5056837;28;20203;-65
2023/05/10 00:36:23;;;;;;;2.57;0.60;;;;;;;13.70;100.00;96221.38;5057988;28;20194;-64
2023/05/10 00:38:50;;;;;;;0.63;0.30;;;;;;;13.71;100.00;96224.84;5059794;28;20210;-65
2023/05/10 00:41:16;;;;;;;2.83;0.37;;;;;;;13.77;100.00;96227.66;5055872;28;20207;-64
2023/05/10 00:43:42;;;;;;;0.70;0.60;;;;;;;13.71;100.00;96230.97;5055268;28;20725;-64
2023/05/10 00:46:09;;;;;;;0.27;0.27;;;;;;;13.66;100.00;96235.16;5055218;28;20242;-65
2023/05/10 00:48:36;;;;;;;0.57;0.30;;;;;;;13.69;100.00;96230.34;5056461;28;20285;-65
2023/05/10 00:51:04;;;;;;;0.60;0.30;;;;;;;13.68;100.00;96233.97;5055949;28;20654;-64
2023/05/10 00:53:31;;;;;;;0.50;0.40;;;;;;;13.67;100.00;96242.97;5057019;28;20203;-64
2023/05/10 00:55:59;;;;;;;1.50;0.23;;;;;;;13.69;100.00;96243.63;5057193;28;20203;-65
2023/05/10 00:58:27;;;;;;;0.87;0.57;;;;;;;13.64;100.00;96237.97;5056663;28;20202;-66
2023/05/10 01:00:56;;;;;;;0.50;0.37;;;;;;;13.66;100.00;96240.47;5057484;28;20238;-65
2023/05/10 01:03:22;;;;;;;0.43;0.30;;;;;;;13.65;100.00;96247.59;5058127;28;20214;-66
2023/05/10 01:05:49;;;;;;;1.30;0.40;;;;;;;13.64;100.00;96235.31;5065643;28;20219;-67
2023/05/10 01:08:17;;;;;;;2.57;0.50;;;;;;;13.63;100.00;96244.31;5056935;28;20223;-65
2023/05/10 01:10:44;;;;;;;0.20;0.20;;;;;;;13.64;100.00;96239.81;5067537;28;20222;-65
2023/05/10 01:13:10;;;;;;;1.20;0.33;;;;;;;13.66;100.00;96238.66;5082926;28;20191;-66
2023/05/10 01:15:37;;;;;;;0.60;0.30;;;;;;;13.66;100.00;96238.66;5068791;28;20211;-66
2023/05/10 01:18:04;;;;;;;0.63;0.50;;;;;;;13.68;100.00;96238.47;5057763;28;20590;-65
2023/05/10 01:20:36;;;;;;;1.00;0.50;;;;;;;13.65;100.00;96239.63;5055062;28;20234;-65
2023/05/10 01:23:28;;;;;;;0.70;0.40;;;;;;;13.66;100.00;96243.97;5054454;28;20266;-66
2023/05/10 01:26:15;;;;;;;0.67;0.30;;;;;;;13.66;100.00;96241.31;5055959;28;20202;-66
2023/05/10 01:29:12;;;;;;;0.30;0.30;;;;;;;13.68;100.00;96243.78;5053911;28;20203;-65
2023/05/10 01:31:59;;;;;;;0.37;0.30;;;;;;;13.67;100.00;96242.97;5054303;28;20222;-66
2023/05/10 01:34:28;;;;;;;0.57;0.50;;;;;;;13.64;100.00;96245.94;5054634;28;20199;-66
2023/05/10 01:37:02;;;;;;;0.43;0.37;;;;;;;13.63;100.00;96239.00;5061874;28;20209;-66
2023/05/10 01:39:35;;;;;;;1.90;0.50;;;;;;;13.68;100.00;96241.13;5062483;28;20194;-66
2023/05/10 01:42:06;;;;;;;0.43;0.43;;;;;;;13.70;100.00;96242.63;5072322;28;20206;-66
2023/05/10 01:44:37;;;;;;;0.73;0.40;;;;;;;13.71;100.00;96241.59;5055755;28;20639;-66
2023/05/10 01:47:13;;;;;;;0.20;0.20;;;;;;;13.72;100.00;96245.94;5074483;28;20221;-66
2023/05/10 01:49:42;;;;;;;0.37;0.30;;;;;;;13.72;100.00;96247.75;5077311;28;20216;-65
2023/05/10 01:52:12;;;;;;;0.53;0.40;;;;;;;13.74;100.00;96253.75;5059958;28;20207;-66
2023/05/10 01:54:42;;;;;;;0.30;0.30;;;;;;;13.75;100.00;96250.88;5058315;28;20203;-66
2023/05/10 01:57:11;;;;;;;0.33;0.30;;;;;;;13.68;100.00;96255.22;5058055;28;20219;-66
2023/05/10 01:59:40;;;;;;;0.60;0.40;;;;;;;13.69;100.00;96259.56;5057875;28;20203;-66
2023/05/10 02:02:11;;;;;;;0.67;0.30;;;;;;;13.70;100.00;96255.06;5064971;28;20198;-65
2023/05/10 02:04:39;;;;;;;0.60;0.60;;;;;;;13.71;100.00;96254.88;5077272;28;20212;-66
2023/05/10 02:07:07;;;;;;;1.90;0.40;;;;;;;13.72;100.00;96248.59;5065564;28;20237;-64
2023/05/10 02:09:35;;;;;;;1.57;0.60;;;;;;;13.67;100.00;96252.75;5063380;28;20261;-66
2023/05/10 02:12:03;;;;;;;0.60;0.40;;;;;;;13.63;100.00;96254.94;5068450;28;20280;-65
2023/05/10 02:14:32;;;;;;;1.83;0.33;;;;;;;13.61;100.00;96245.47;5067089;28;20306;-65
2023/05/10 02:16:59;;;;;;;0.30;0.30;;;;;;;13.66;100.00;96251.09;5057523;28;20644;-65
2023/05/10 02:19:28;;;;;;;1.03;0.50;;;;;;;13.63;100.00;96252.28;5057613;28;20203;-65
2023/05/10 02:21:56;;;;;;;0.40;0.40;;;;;;;13.55;100.00;96243.50;5057384;28;20239;-64
2023/05/10 02:24:23;;;;;;;0.50;0.50;;;;;;;13.50;100.00;96249.31;5059049;28;20258;-66
2023/05/10 02:26:50;;;;;;;1.77;0.40;;;;;;;13.53;100.00;96249.00;5057507;28;20297;-65
2023/05/10 02:29:19;;;;;;;1.70;0.47;;;;;;;13.51;100.00;96243.00;5056930;28;20655;-65
2023/05/10 02:31:47;;;;;;;0.40;0.40;;;;;;;13.47;100.00;96252.31;5057701;28;20298;-65
2023/05/10 02:34:15;;;;;;;1.23;0.80;;;;;;;13.46;100.00;96250.69;5061797;28;20218;-67
2023/05/10 02:36:43;;;;;;;0.30;0.30;;;;;;;13.46;100.00;96250.69;5071182;28;20204;-66
2023/05/10 02:39:12;;;;;;;0.30;0.30;;;;;;;13.43;100.00;96245.69;5058627;28;20203;-66
2023/05/10 02:41:40;;;;;;;1.20;0.30;;;;;;;13.42;100.00;96244.88;5057554;28;20289;-65
2023/05/10 02:44:08;;;;;;;1.50;0.30;;;;;;;13.39;100.00;96247.03;5056899;28;20210;-66
2023/05/10 02:46:35;;;;;;;0.47;0.30;;;;;;;13.38;100.00;96245.38;5069695;28;20670;-66
2023/05/10 02:49:02;;;;;;;0.73;0.63;;;;;;;13.43;100.00;96243.03;5073544;28;20218;-66
2023/05/10 02:51:33;;;;;;;1.03;0.30;;;;;;;13.39;100.00;96250.50;5064838;28;20215;-66
2023/05/10 02:54:02;;;;;;;1.30;0.50;;;;;;;13.45;100.00;96247.19;5057019;28;20298;-65
2023/05/10 02:56:33;;;;;;;0.43;0.43;;;;;;;13.42;100.00;96249.34;5056881;28;20214;-65
2023/05/10 02:59:00;;;;;;;0.40;0.40;;;;;;;13.40;100.00;96246.84;5056796;28;20272;-65
2023/05/10 03:01:26;;;;;;;1.50;0.57;;;;;;;13.40;100.00;96240.72;5057252;28;20211;-64
2023/05/10 03:03:53;;;;;;;0.90;0.50;;;;;;;13.37;100.00;96243.72;5056871;28;20215;-66
2023/05/10 03:06:20;;;;;;;0.60;0.60;;;;;;;13.37;100.00;96239.22;5056997;28;20261;-65
2023/05/10 03:08:46;;;;;;;1.33;0.50;;;;;;;13.37;100.00;96235.75;5056618;28;20210;-65
2023/05/10 03:11:27;;;;;;;0.70;0.60;;;;;;;13.32;100.00;96238.09;5057404;28;20239;-66
2023/05/10 03:13:58;;;;;;;1.60;0.60;;;;;;;13.29;100.00;96233.09;5056008;28;20638;-67
2023/05/10 03:16:28;;;;;;;0.60;0.60;;;;;;;13.37;100.00;96243.72;5056629;28;20202;-66
2023/05/10 03:18:57;;;;;;;0.77;0.63;;;;;;;13.38;100.00;96253.34;5056422;28;20905;-66
2023/05/10 03:21:27;;;;;;;0.50;0.50;;;;;;;13.42;100.00;96252.84;5055963;28;20325;-65
2023/05/10 03:23:57;;;;;;;0.47;0.47;;;;;;;13.34;100.00;96252.84;5057545;28;20265;-66
2023/05/10 03:26:28;;;;;;;0.77;0.60;;;;;;;13.32;100.00;96259.34;5056481;28;20211;-64
2023/05/10 03:28:54;;;;;;;0.50;0.50;;;;;;;13.27;100.00;96253.69;5055877;28;20207;-65
2023/05/10 03:31:21;;;;;;;0.70;0.60;;;;;;;13.27;100.00;96253.69;5059314;28;20272;-66
2023/05/10 03:33:48;;;;;;;0.83;0.60;;;;;;;13.28;100.00;96250.06;5075214;28;20230;-65
2023/05/10 03:36:15;;;;;;;2.00;0.90;;;;;;;13.31;100.00;96247.06;5090111;28;20190;-67
2023/05/10 03:38:43;;;;;;;0.80;0.80;;;;;;;13.32;100.00;96251.38;5067104;28;20262;-66
2023/05/10 03:41:10;;;;;;;1.70;0.90;;;;;;;13.34;100.00;96249.38;5075301;28;20271;-66
2023/05/10 03:43:38;;;;;;;1.40;0.67;;;;;;;13.34;100.00;96262.66;5080572;28;20210;-65
2023/05/10 03:46:05;;;;;;;0.90;0.73;;;;;;;13.34;100.00;96262.66;5057788;28;20531;-64
2023/05/10 03:48:32;;;;;;;0.80;0.80;;;;;;;13.31;100.00;96268.31;5060653;28;20218;-65
2023/05/10 03:51:03;;;;;;;0.90;0.90;;;;;;;13.27;100.00;96259.00;5056674;28;20211;-66
2023/05/10 03:53:30;;;;;;;0.90;0.90;;;;;;;13.31;100.00;96268.31;5056538;28;20207;-64
2023/05/10 03:55:57;;;;;;;0.80;0.80;;;;;;;13.25;100.00;96259.16;5058522;28;20207;-65
2023/05/10 03:58:24;;;;;;;0.70;0.70;;;;;;;13.28;100.00;96258.84;5060028;28;20195;-67
2023/05/10 04:00:55;;;;;;;0.77;0.77;;;;;;;13.25;100.00;96269.78;5072029;28;20233;-66
2023/05/10 04:03:21;;;;;;;3.53;1.60;;;;;;;13.31;100.00;96269.13;5083083;28;20266;-66
2023/05/10 04:05:48;;;;;;;0.90;0.90;;;;;;;13.28;100.00;96268.66;5066259;28;20207;-68
2023/05/10 04:08:16;;;;;;;1.37;1.00;;;;;;;13.25;100.00;96274.28;5067656;28;20231;-67
2023/05/10 04:10:42;;;;;;;3.03;1.20;;;;;;;13.26;100.00;96282.06;5064077;28;20310;-67
2023/05/10 04:13:09;;;;;;;1.00;0.90;;;;;;;13.26;100.00;96275.94;5072637;28;20218;-66
2023/05/10 04:15:36;;;;;;;1.67;1.20;;;;;;;13.23;100.00;96276.28;5066660;28;20211;-66
2023/05/10 04:18:04;;;;;;;1.23;1.13;;;;;;;13.24;100.00;96272.63;5070888;28;20207;-66
2023/05/10 04:20:33;;;;;;;1.00;1.00;;;;;;;13.24;100.00;96262.84;5079710;28;20206;-66
2023/05/10 04:23:00;;;;;;;0.90;0.90;;;;;;;13.28;100.00;96268.66;5055762;28;20235;-66
2023/05/10 04:25:26;;;;;;;4.63;4.30;;;;;;;13.28;100.00;96263.34;5062193;28;20638;-66
2023/05/10 04:27:52;;;;;;;1.70;1.60;;;;;;;13.30;100.00;96263.97;5061025;28;20693;-67
2023/05/10 04:30:19;;;;;;;1.93;1.20;;;;;;;13.25;100.00;96274.28;5075029;28;20213;-66
2023/05/10 04:32:46;;;;;;;1.13;0.87;;;;;;;13.25;100.00;96263.66;5069198;28;20244;-66
2023/05/10 04:35:14;;;;;;;1.13;0.70;;;;;;;13.26;100.00;96281.25;5055238;28;20530;-66
2023/05/10 04:37:41;;;;;;;1.00;1.00;;;;;;;13.23;100.00;96281.59;5062682;28;20203;-66
2023/05/10 04:40:09;;;;;;;1.63;0.57;;;;;;;13.22;100.00;96278.09;5055097;28;20652;-65
2023/05/10 04:42:35;;;;;;;0.97;0.87;;;;;;;13.23;100.00;96281.59;5055274;28;20207;-66
2023/05/10 04:45:02;;;;;;;0.70;0.70;;;;;;;13.24;100.00;96291.22;5055032;28;20222;-67
2023/05/10 04:47:29;;;;;;;2.93;0.77;;;;;;;13.27;100.00;96282.91;5054795;28;20258;-66
2023/05/10 04:49:55;;;;;;;0.80;0.73;;;;;;;13.19;100.00;96291.72;5067656;28;20229;-66
2023/05/10 04:52:23;;;;;;;0.73;0.73;;;;;;;13.19;100.00;96291.72;5075416;28;20206;-65
2023/05/10 04:54:52;;;;;;;1.60;0.90;;;;;;;13.18;100.00;96290.03;5061653;28;20199;-66
2023/05/10 04:57:19;;;;;;;0.53;0.53;;;;;;;13.14;100.00;96287.91;5067535;28;20203;-66
2023/05/10 04:59:45;;;;;;;1.93;1.07;;;;;;;13.15;100.00;96285.06;5054402;28;20242;-65
2023/05/10 05:02:12;;;;;;;0.70;0.70;;;;;;;13.12;100.00;96293.38;5061649;28;20206;-62
2023/05/10 05:04:39;;;;;;;0.80;0.80;;;;;;;13.17;100.00;96292.88;5064479;28;20209;-62
2023/05/10 05:07:05;;;;;;;0.90;0.90;;;;;;;13.20;100.00;96297.84;5065946;28;20680;-62
2023/05/10 05:09:33;;;;;;;3.23;0.90;;;;;;;13.20;100.00;96292.53;5053920;28;20207;-61
2023/05/10 05:12:00;;;;;;;0.87;0.70;;;;;;;13.21;100.00;96304.84;5054430;28;20211;-61
2023/05/10 05:14:27;;;;;;;1.97;1.00;;;;;;;13.21;100.00;96307.50;5054132;28;20195;-61
2023/05/10 05:16:54;;;;;;;1.07;0.80;;;;;;;13.20;100.00;96308.47;5054586;28;20218;-63
2023/05/10 05:19:20;;;;;;;1.00;0.90;;;;;;;13.24;100.00;96310.63;5054158;28;20199;-61
2023/05/10 05:21:47;;;;;;;0.70;0.63;;;;;;;13.26;100.00;96323.72;5054194;28;20242;-60
2023/05/10 05:24:13;;;;;;;2.73;0.70;;;;;;;13.25;100.00;96322.88;5056310;28;20202;-61
2023/05/10 05:26:41;;;;;;;0.73;0.73;;;;;;;13.27;100.00;96328.06;5065469;28;20202;-61
2023/05/10 05:29:08;;;;;;;1.53;0.83;;;;;;;13.26;100.00;96324.56;5070655;28;20222;-61
2023/05/10 05:31:34;;;;;;;3.17;1.00;;;;;;;13.33;100.00;96330.03;5054811;28;20257;-61
2023/05/10 05:34:01;;;;;;;1.03;0.80;;;;;;;13.23;100.00;96329.38;5056596;28;20207;-62
2023/05/10 05:36:29;;;;;;;1.23;0.80;;;;;;;13.23;100.00;96329.38;5068912;28;20233;-61
2023/05/10 05:38:55;;;;;;;0.60;0.60;;;;;;;13.25;100.00;96338.03;5057763;28;20199;-61
2023/05/10 05:41:23;;;;;;;0.80;0.70;;;;;;;13.29;100.00;96334.00;5054208;28;20594;-63
2023/05/10 05:43:51;;;;;;;0.70;0.70;;;;;;;13.30;100.00;96336.50;5053957;28;20290;-62
2023/05/10 05:46:18;;;;;;;0.70;0.70;;;;;;;13.38;100.00;96325.06;5054755;28;20238;-61
2023/05/10 05:48:45;;;;;;;0.70;0.70;;;;;;;13.42;100.00;96329.88;5057753;28;20328;-62
2023/05/10 05:51:11;;;;;;;3.00;0.90;;;;;;;13.46;100.00;96333.81;5063890;28;20215;-61
2023/05/10 05:53:38;;;;;;;0.77;0.77;;;;;;;13.46;100.00;96333.03;5064511;28;20207;-63
2023/05/10 05:56:05;;;;;;;2.43;1.03;;;;;;;13.46;100.00;96339.13;5080734;28;20210;-62
2023/05/10 05:58:32;;;;;;;2.13;0.70;;;;;;;13.52;100.00;96342.97;5064436;28;20266;-63
2023/05/10 06:01:00;;;;;;;1.70;0.70;;;;;;;13.52;100.00;96345.63;5054956;28;20211;-62
2023/05/10 06:03:26;;;;;;;0.97;0.60;;;;;;;13.53;100.00;96338.47;5054863;28;20218;-61
2023/05/10 06:05:52;;;;;;;1.00;0.70;;;;;;;13.56;100.00;96346.94;5054292;28;20211;-62
2023/05/10 06:08:20;;;;;;;2.10;0.90;;;;;;;13.60;100.00;96352.75;5054122;28;20275;-59
2023/05/10 06:10:46;;;;;;;0.90;0.70;;;;;;;13.51;100.00;96351.91;5053790;28;20302;-62
2023/05/10 06:13:15;;;;;;;1.03;0.90;;;;;;;13.56;100.00;96357.56;5083775;28;20202;-60
2023/05/10 06:15:41;;;;;;;2.27;0.80;;;;;;;13.55;100.00;96361.22;5070941;28;20229;-61
2023/05/10 06:18:10;;;;;;;1.00;0.67;;;;;;;13.58;100.00;96374.16;5053983;28;20646;-61
2023/05/10 06:20:36;;;;;;;2.97;0.80;;;;;;;13.46;100.00;96364.91;5053946;28;20218;-61
2023/05/10 06:23:03;;;;;;;1.23;0.70;;;;;;;13.40;100.00;96363.72;5053639;28;20235;-62
2023/05/10 06:25:29;;;;;;;1.07;0.90;;;;;;;13.44;100.00;96361.56;5061006;28;20229;-61
2023/05/10 06:27:57;;;;;;;2.30;0.90;;;;;;;13.39;100.00;96377.19;5067184;28;20769;-62
2023/05/10 06:30:27;;;;;;;0.97;0.67;;;;;;;13.41;100.00;96377.84;5055583;28;20265;-61
2023/05/10 06:32:55;;;;;;;0.87;0.80;;;;;;;13.42;100.00;96379.50;5058005;28;20211;-61
2023/05/10 06:35:24;;;;;;;0.80;0.80;;;;;;;13.44;100.00;96377.50;5059170;28;20211;-61
2023/05/10 06:37:51;;;;;;;1.03;1.03;;;;;;;13.62;100.00;96388.78;5066981;28;20200;-61
2023/05/10 06:40:18;;;;;;;1.63;0.80;;;;;;;13.55;100.00;96382.47;5056952;28;20207;-60
2023/05/10 06:42:45;;;;;;;0.70;0.70;;;;;;;13.54;100.00;96391.44;5057647;28;20223;-61
2023/05/10 06:45:12;;;;;;;1.53;1.20;;;;;;;13.59;100.00;96389.13;5059632;28;20221;-61
2023/05/10 06:47:39;;;;;;;1.57;1.47;;;;;;;13.52;100.00;96387.28;5057473;28;20250;-61
2023/05/10 06:50:07;;;;;;;1.20;1.10;;;;;;;13.52;100.00;96382.81;5069554;28;20206;-61
2023/05/10 06:52:35;;;;;;;1.40;1.30;;;;;;;13.51;100.00;96383.81;5057266;28;20215;-62
2023/05/10 06:55:04;;;;;;;1.63;1.10;;;;;;;13.48;100.00;96389.44;5058300;28;20211;-62
2023/05/10 06:57:32;;;;;;;1.20;1.10;;;;;;;13.44;100.00;96390.78;5058703;28;20214;-62
2023/05/10 06:59:59;;;;;;;1.10;1.03;;;;;;;13.47;100.00;96387.78;5058894;28;20218;-62
2023/05/10 07:02:26;;;;;;;1.70;1.30;;;;;;;13.49;100.00;96388.47;5066646;28;20209;-62
2023/05/10 07:04:53;;;;;;;1.27;1.17;;;;;;;13.52;100.00;96382.81;5064349;28;20321;-62
2023/05/10 07:07:19;;;;;;;2.20;2.00;;;;;;;13.62;100.00;96388.78;5059041;28;20298;-61
2023/05/10 07:09:49;;;;;;;1.20;1.00;;;;;;;13.68;100.00;96389.91;5059583;28;20231;-61
2023/05/10 07:12:16;;;;;;;2.93;0.73;;;;;;;13.68;100.00;96385.44;5072670;28;20201;-62
2023/05/10 07:14:42;;;;;;;1.73;0.93;;;;;;;13.77;100.00;96381.78;5065138;28;20233;-62
2023/05/10 07:17:09;;;;;;;1.13;1.00;;;;;;;13.80;100.00;96397.38;5057191;28;20203;-61
2023/05/10 07:19:35;;;;;;;1.70;0.80;;;;;;;13.82;100.00;96395.38;5074578;28;20264;-61
2023/05/10 07:22:02;;;;;;;0.80;0.70;;;;;;;13.84;100.00;96398.72;5065733;28;20242;-60
2023/05/10 07:24:31;;;;;;;1.13;0.80;;;;;;;13.87;100.00;96405.50;5063519;28;20208;-61
2023/05/10 07:26:58;;;;;;;2.53;0.80;;;;;;;13.81;100.00;96408.84;5065831;28;20703;-61
2023/05/10 07:29:25;;;;;;;2.27;0.60;;;;;;;13.70;100.00;96398.56;5074829;28;20237;-60
2023/05/10 07:31:53;;;;;;;0.73;0.73;;;;;;;13.68;100.00;96403.22;5065435;28;20222;-61
2023/05/10 07:34:19;;;;;;;1.30;0.83;;;;;;;13.61;100.00;96403.06;5057009;28;20260;-61
2023/05/10 07:36:46;;;;;;;2.43;0.80;;;;;;;13.60;100.00;96406.72;5063566;28;20214;-61
2023/05/10 07:39:13;;;;;;;0.77;0.70;;;;;;;13.66;100.00;96399.91;5057396;28;20207;-61
2023/05/10 07:41:40;;;;;;;0.97;0.87;;;;;;;13.60;100.00;96408.56;5057047;28;20199;-61
2023/05/10 07:44:08;;;;;;;0.83;0.83;;;;;;;13.57;100.00;96412.34;5056822;28;20207;-61
2023/05/10 07:46:34;;;;;;;1.67;0.63;;;;;;;13.54;100.00;96412.69;5057787;28;20211;-61
2023/05/10 07:49:01;;;;;;;0.83;0.83;;;;;;;13.49;100.00;96412.38;5057637;28;20245;-61
2023/05/10 07:51:32;;;;;;;1.40;1.30;;;;;;;13.48;100.00;96412.53;5072477;28;20202;-61
2023/05/10 07:54:02;;;;;;;1.30;1.10;;;;;;;13.52;100.00;96419.19;5076941;28;20191;-61
2023/05/10 07:56:32;;;;;;;3.80;1.03;;;;;;;13.40;100.00;96408.88;5079137;28;20167;-60
2023/05/10 07:58:59;;;;;;;0.80;0.80;;;;;;;13.44;100.00;96417.34;5098638;28;20208;-60
2023/05/10 08:01:27;;;;;;;2.97;0.80;;;;;;;13.47;100.00;96422.31;5084238;28;20194;-60
2023/05/10 08:03:54;;;;;;;2.60;0.93;;;;;;;13.48;100.00;96418.69;5098649;28;20197;-61
2023/05/10 08:06:21;;;;;;;1.40;1.10;;;;;;;13.54;100.00;96425.97;5097772;28;20186;-61
2023/05/10 08:08:50;;;;;;;1.20;1.07;;;;;;;13.60;100.00;96417.34;5089040;28;20251;-61
2023/05/10 08:11:17;;;;;;;1.33;0.90;;;;;;;13.57;100.00;96422.97;5075985;28;20227;-61
2023/05/10 08:13:44;;;;;;;2.40;1.10;;;;;;;13.47;100.00;96427.63;5065637;28;20542;-61
2023/05/10 08:16:11;;;;;;;0.73;0.73;;;;;;;13.52;100.00;96421.84;5093160;28;20270;-61
2023/05/10 08:18:39;;;;;;;2.73;1.07;;;;;;;13.48;100.00;96413.38;5087689;28;20302;-61
2023/05/10 08:21:06;;;;;;;1.93;0.90;;;;;;;13.61;100.00;96421.66;5070280;28;20219;-62
2023/05/10 08:23:33;;;;;;;1.67;1.23;;;;;;;13.66;100.00;96416.69;5087082;28;20220;-62
2023/05/10 08:26:00;;;;;;;2.47;1.57;;;;;;;13.77;100.00;96424.31;5076671;28;20202;-61
2023/05/10 08:28:28;;;;;;;1.60;1.00;;;;;;;13.81;100.00;96424.81;5086589;28;20238;-61
2023/05/10 08:30:55;;;;;;;5.47;1.10;;;;;;;13.90;100.00;96419.31;5095149;28;20198;-61
2023/05/10 08:33:22;;;;;;;1.83;1.20;;;;;;;14.07;100.00;96419.25;5079144;28;20195;-61
2023/05/10 08:35:50;;;;;;;0.90;0.90;;;;;;;14.07;100.00;96416.59;5055159;28;20213;-61
2023/05/10 08:38:17;;;;;;;2.77;0.90;;;;;;;14.10;100.00;96414.41;5062902;28;20199;-61
2023/05/10 08:40:45;;;;;;;3.03;1.13;;;;;;;14.17;100.00;96419.91;5055515;28;20215;-61
2023/05/10 08:43:14;;;;;;;3.00;0.90;;;;;;;14.24;100.00;96420.91;5055106;28;20276;-61
2023/05/10 08:45:46;;;;;;;2.77;1.07;;;;;;;14.28;100.00;96424.84;5073886;28;20221;-61
2023/05/10 08:48:13;;;;;;;2.03;1.00;;;;;;;14.42;100.00;96435.63;5075067;28;20255;-61
2023/05/10 08:50:41;;;;;;;1.50;1.00;;;;;;;14.49;100.00;96430.44;5074434;28;20214;-61
2023/05/10 08:53:11;;;;;;;3.47;1.47;;;;;;;14.54;100.00;96430.78;5062126;28;20211;-61
2023/05/10 08:55:38;;;;;;;3.70;1.50;;;;;;;14.60;100.00;96431.91;5062761;28;20211;-61
2023/05/10 08:58:05;;;;;;;3.60;2.10;;;;;;;14.60;100.00;96432.75;5065076;28;20251;-61
2023/05/10 09:00:32;;;;;;;2.10;1.90;;;;;;;14.60;100.00;96438.06;5055028;28;20234;-61
2023/05/10 09:02:59;;;;;;;3.60;2.07;;;;;;;14.62;100.00;96443.22;5064452;28;20210;-61
2023/05/10 09:05:26;;;;;;;1.57;1.20;;;;;;;14.47;100.00;96442.28;5055311;28;20238;-61
2023/05/10 09:07:52;;;;;;;1.70;1.03;;;;;;;14.39;100.00;96440.47;5055510;28;20558;-61
2023/05/10 09:10:21;;;;;;;3.60;1.20;;;;;;;14.28;100.00;96444.28;5054971;28;20231;-61
2023/05/10 09:12:49;;;;;;;2.37;1.27;;;;;;;14.34;100.00;96442.84;5072955;28;20226;-61
2023/05/10 09:15:19;;;;;;;2.67;1.20;;;;;;;14.36;100.00;96444.31;5060480;28;20194;-60
2023/05/10 09:17:45;;;;;;;2.97;1.30;;;;;;;14.44;100.00;96448.78;5058586;28;20214;-61
2023/05/10 09:20:12;;;;;;;2.33;0.97;;;;;;;14.51;100.00;96455.06;5064874;28;20534;-62
2023/05/10 09:22:39;;;;;;;3.07;1.23;;;;;;;14.48;100.00;96443.94;5069325;28;20557;-61
2023/05/10 09:25:08;;;;;;;5.80;1.40;;;;;;;14.63;100.00;96447.56;5061482;28;20199;-62
2023/05/10 09:27:37;;;;;;;2.23;0.97;;;;;;;14.53;100.00;96457.53;5070924;28;20203;-61
2023/05/10 09:30:04;;;;;;;2.03;1.30;;;;;;;14.54;100.00;96452.06;5064177;28;20234;-62
2023/05/10 09:32:38;;;;;;;3.63;1.30;;;;;;;14.55;100.00;96455.56;5067093;28;20226;-62
2023/05/10 09:35:11;;;;;;;2.27;1.10;;;;;;;14.52;100.00;96455.91;5072064;28;20217;-61
2023/05/10 09:37:41;;;;;;;1.20;1.10;;;;;;;14.58;100.00;96453.38;5067624;28;20636;-61
2023/05/10 09:40:09;;;;;;;1.55;1.10;;;;;;;14.53;100.00;96452.22;5067067;28;20207;-61
2023/05/10 09:42:38;;;;;;;2.72;1.00;;;;;;;14.51;100.00;96455.06;5054359;28;20219;-59
2023/05/10 09:45:07;;;;;;;4.43;1.23;;;;;;;14.44;100.00;96454.94;5065391;28;20198;-59
2023/05/10 09:47:35;;;;;;;2.85;1.27;;;;;;;14.53;100.00;96447.75;5074837;28;20214;-60
2023/05/10 09:50:04;;;;;;;2.10;1.20;;;;;;;14.54;100.00;96446.75;5075707;28;20222;-58
2023/05/10 09:52:31;;;;;;;3.85;1.65;;;;;;;14.55;100.00;96443.09;5072386;28;20245;-59
2023/05/10 09:54:58;;;;;;;2.33;1.20;;;;;;;14.60;100.00;96443.38;5074426;28;20214;-59
2023/05/10 09:57:25;;;;;;;3.20;1.23;;;;;;;14.70;98.53;96446.66;5077569;28;20203;-61
2023/05/10 09:59:55;;;;;;;2.57;1.03;;;;;;;14.62;97.19;96454.69;5065059;28;20222;-60
2023/05/10 10:02:21;;;;;;;3.33;1.03;;;;;;;14.58;97.44;96448.06;5063270;28;20227;-61
2023/05/10 10:04:51;;;;;;;4.03;1.20;;;;;;;14.58;93.97;96450.72;5062389;28;20265;-60
2023/05/10 10:07:23;;;;;;;3.77;1.10;;;;;;;14.57;93.99;96456.22;5069451;28;20674;-62
2023/05/10 10:09:50;;;;;;;1.77;1.13;;;;;;;14.47;95.98;96453.75;5066197;28;20543;-60
2023/05/10 10:12:19;;;;;;;1.70;0.80;;;;;;;14.45;96.41;96453.91;5085455;28;20202;-59
2023/05/10 10:14:49;;;;;;;1.60;1.10;;;;;;;14.49;96.55;96454.41;5063936;28;20210;-61
2023/05/10 10:17:17;;;;;;;3.13;1.10;;;;;;;14.48;92.15;96449.28;5063708;28;20499;-60
2023/05/10 10:19:46;;;;;;;2.43;1.20;;;;;;;14.47;94.65;96453.75;5064541;28;20195;-60
2023/05/10 10:22:13;;;;;;;2.00;1.80;;;;;;;14.47;97.12;96451.09;5070408;28;20238;-60
2023/05/10 10:24:42;;;;;;;4.40;2.70;;;;;;;14.50;94.76;96442.75;5070591;28;20214;-60
2023/05/10 10:27:15;;;;;;;1.57;1.30;;;;;;;14.50;93.57;96450.75;5064104;28;20550;-59
2023/05/10 10:29:49;;;;;;;3.87;1.10;;;;;;;14.56;92.56;96435.94;5057598;28;20539;-61
2023/05/10 10:32:24;;;;;;;4.10;1.47;;;;;;;14.59;94.20;96436.44;5061060;28;20226;-61
2023/05/10 10:34:51;;;;;;;2.70;1.30;;;;;;;14.69;92.32;96442.38;5062790;28;20289;-59
2023/05/10 10:37:18;;;;;;;4.37;1.10;;;;;;;14.80;92.13;96446.47;5064891;28;20203;-59
2023/05/10 10:39:45;;;;;;;3.40;1.10;;;;;;;14.98;91.21;96443.56;5083932;28;20208;-60
2023/05/10 10:42:12;;;;;;;2.83;1.13;;;;;;;15.13;87.28;96439.94;5080295;28;20195;-59
2023/05/10 10:44:38;;;;;;;1.65;1.10;;;;;;;15.30;93.71;96438.03;5083912;28;20176;-60
2023/05/10 10:47:28;;;;;;;2.47;1.02;;;;;;;15.67;92.46;96443.44;5065767;28;20205;-60
2023/05/10 10:50:05;;;;;;;4.93;1.25;;;;;;;16.07;92.26;96444.06;5066089;28;20253;-60
2023/05/10 10:52:33;;;;;;;3.40;1.35;;;;;;;16.27;84.93;96439.84;5063412;28;20523;-60
2023/05/10 10:55:03;;;;;;;3.53;1.55;;;;;;;16.56;88.36;96434.56;5058586;28;20261;-60
2023/05/10 10:57:36;;;;;;;2.25;1.20;;;;;;;16.62;83.06;96427.63;5059221;28;20268;-59
2023/05/10 11:00:36;;;;;;;2.10;1.10;;;;;;;16.75;83.86;96430.50;5070775;28;20202;-60
2023/05/10 11:03:06;;;;;;;3.58;1.00;;;;;;;16.70;90.48;96430.22;5064835;28;20206;-61
2023/05/10 11:05:43;;;;;;;3.08;1.15;;;;;;;16.57;79.78;96432.72;5067996;28;20208;-61
2023/05/10 11:08:17;;;;;;;1.45;0.90;;;;;;;16.44;75.04;96427.97;5056736;28;20199;-60
2023/05/10 11:10:54;;;;;;;1.70;0.90;;;;;;;16.00;82.30;96427.97;5056479;28;20227;-60
2023/05/10 11:13:32;;;;;;;1.52;1.08;;;;;;;15.68;90.59;96426.44;5067145;28;20281;-60
2023/05/10 11:15:59;;;;;;;1.08;0.90;;;;;;;15.45;93.01;96439.72;5060664;28;20238;-59
2023/05/10 11:18:27;;;;;;;2.92;1.30;;;;;;;15.36;89.01;96437.31;5063855;28;20194;-60
2023/05/10 11:20:59;;;;;;;1.52;1.00;;;;;;;15.29;86.98;96441.69;5061817;28;20290;-60
2023/05/10 11:23:31;;;;;;;1.50;0.90;;;;;;;15.14;89.66;96438.13;5065820;28;20199;-60
2023/05/10 11:25:58;;;;;;;2.97;1.60;;;;;;;15.02;92.96;96439.53;5060775;28;20203;-61
2023/05/10 11:28:25;;;;;;;1.10;0.98;;;;;;;14.97;96.46;96439.22;5062608;28;20203;-60
2023/05/10 11:30:52;;;;;;;2.03;0.82;;;;;;;14.99;96.28;96432.72;5065683;28;20219;-60
2023/05/10 11:33:19;;;;;;;2.30;1.30;;;;;;;15.23;96.41;96429.09;5059718;28;20546;-60